sensor_id;sensor_type;location;lat;lon;timestamp;pressure;altitude;pressure_sealevel;temperature;humidity
1371;BME280;14306;49.942;11.570;2023-06-26T00:01:29;97572.63;;;19.59;80.00
1371;BME280;14306;49.942;11.570;2023-06-26T00:04:00;97577.91;;;19.48;79.61
1371;BME280;14306;49.942;11.570;2023-06-26T00:06:28;97571.03;;;19.73;79.50
1371;BME280;14306;49.942;11.570;2023-06-26T00:08:56;97574.19;;;19.75;78.57
1371;BME280;14306;49.942;11.570;2023-06-26T00:11:25;97559.88;;;19.66;78.62
1371;BME280;14306;49.942;11.570;2023-06-26T00:13:54;97575.13;;;19.64;78.94
1371;BME280;14306;49.942;11.570;2023-06-26T00:16:24;97575.91;;;19.64;77.15
1371;BME280;14306;49.942;11.570;2023-06-26T00:18:52;97569.69;;;19.67;76.10
1371;BME280;14306;49.942;11.570;2023-06-26T00:21:21;97573.25;;;19.68;76.13
1371;BME280;14306;49.942;11.570;2023-06-26T00:23:49;97576.88;;;19.72;76.49
1371;BME280;14306;49.942;11.570;2023-06-26T00:26:17;97575.03;;;19.60;76.21
1371;BME280;14306;49.942;11.570;2023-06-26T00:28:45;97572.53;;;19.71;75.81
1371;BME280;14306;49.942;11.570;2023-06-26T00:31:13;97569.41;;;19.72;75.52
1371;BME280;14306;49.942;11.570;2023-06-26T00:33:43;97569.34;;;19.69;75.41
1371;BME280;14306;49.942;11.570;2023-06-26T00:36:11;97573.91;;;19.61;75.63
1371;BME280;14306;49.942;11.570;2023-06-26T00:38:39;97574.97;;;19.57;75.74
1371;BME280;14306;49.942;11.570;2023-06-26T00:41:07;97573.59;;;19.66;75.44
1371;BME280;14306;49.942;11.570;2023-06-26T00:43:40;97572.13;;;19.53;75.54
1371;BME280;14306;49.942;11.570;2023-06-26T00:46:09;97571.41;;;19.56;74.85
1371;BME280;14306;49.942;11.570;2023-06-26T00:48:39;97569.53;;;19.60;74.08
1371;BME280;14306;49.942;11.570;2023-06-26T00:51:13;97571.94;;;19.62;73.88
1371;BME280;14306;49.942;11.570;2023-06-26T00:53:42;97564.13;;;19.64;73.73
1371;BME280;14306;49.942;11.570;2023-06-26T00:56:11;97564.84;;;19.61;73.56
1371;BME280;14306;49.942;11.570;2023-06-26T00:58:39;97556.88;;;19.56;73.76
1371;BME280;14306;49.942;11.570;2023-06-26T01:01:07;97555.56;;;19.50;73.81
1371;BME280;14306;49.942;11.570;2023-06-26T01:03:44;97560.09;;;19.42;74.11
1371;BME280;14306;49.942;11.570;2023-06-26T01:06:15;97553.34;;;19.40;74.75
1371;BME280;14306;49.942;11.570;2023-06-26T01:08:44;97553.44;;;19.43;75.76
1371;BME280;14306;49.942;11.570;2023-06-26T01:11:13;97555.44;;;19.27;76.17
1371;BME280;14306;49.942;11.570;2023-06-26T01:13:42;97547.06;;;19.23;76.90
1371;BME280;14306;49.942;11.570;2023-06-26T01:16:12;97546.03;;;19.28;76.58
1371;BME280;14306;49.942;11.570;2023-06-26T01:18:44;97542.13;;;19.29;76.39
1371;BME280;14306;49.942;11.570;2023-06-26T01:21:17;97543.63;;;19.27;76.09
1371;BME280;14306;49.942;11.570;2023-06-26T01:24:04;97552.75;;;19.31;75.76
1371;BME280;14306;49.942;11.570;2023-06-26T01:26:35;97556.13;;;19.24;76.31
1371;BME280;14306;49.942;11.570;2023-06-26T01:29:06;97554.06;;;19.21;76.70
1371;BME280;14306;49.942;11.570;2023-06-26T01:31:36;97556.84;;;19.37;75.78
1371;BME280;14306;49.942;11.570;2023-06-26T01:34:05;97552.75;;;19.31;76.36
1371;BME280;14306;49.942;11.570;2023-06-26T01:36:33;97550.72;;;19.28;76.41
1371;BME280;14306;49.942;11.570;2023-06-26T01:39:02;97553.09;;;19.29;76.05
1371;BME280;14306;49.942;11.570;2023-06-26T01:41:30;97555.22;;;19.20;76.38
1371;BME280;14306;49.942;11.570;2023-06-26T01:44:09;97540.31;;;19.21;76.09
1371;BME280;14306;49.942;11.570;2023-06-26T01:46:43;97538.03;;;19.07;77.24
1371;BME280;14306;49.942;11.570;2023-06-26T01:49:18;97542.41;;;19.24;76.48
1371;BME280;14306;49.942;11.570;2023-06-26T01:51:55;97540.88;;;19.27;75.92
1371;BME280;14306;49.942;11.570;2023-06-26T01:54:30;97534.03;;;19.20;76.27
1371;BME280;14306;49.942;11.570;2023-06-26T01:57:01;97524.22;;;18.88;77.48
1371;BME280;14306;49.942;11.570;2023-06-26T01:59:32;97524.41;;;18.95;77.70
1371;BME280;14306;49.942;11.570;2023-06-26T02:02:01;97535.22;;;18.88;77.08
1371;BME280;14306;49.942;11.570;2023-06-26T02:04:29;97517.78;;;18.81;76.73
1371;BME280;14306;49.942;11.570;2023-06-26T02:06:58;97526.38;;;18.79;77.09
1371;BME280;14306;49.942;11.570;2023-06-26T02:09:26;97534.72;;;18.55;80.13
1371;BME280;14306;49.942;11.570;2023-06-26T02:11:54;97539.16;;;18.60;80.40
1371;BME280;14306;49.942;11.570;2023-06-26T02:14:22;97534.72;;;18.40;80.93
1371;BME280;14306;49.942;11.570;2023-06-26T02:16:52;97534.84;;;18.59;79.13
1371;BME280;14306;49.942;11.570;2023-06-26T02:19:20;97540.22;;;18.55;78.41
1371;BME280;14306;49.942;11.570;2023-06-26T02:21:49;97533.94;;;18.55;77.79
1371;BME280;14306;49.942;11.570;2023-06-26T02:24:17;97536.44;;;18.60;77.85
1371;BME280;14306;49.942;11.570;2023-06-26T02:26:45;97537.25;;;18.60;77.65
1371;BME280;14306;49.942;11.570;2023-06-26T02:29:14;97533.78;;;18.63;77.63
1371;BME280;14306;49.942;11.570;2023-06-26T02:31:42;97530.09;;;18.71;77.25
1371;BME280;14306;49.942;11.570;2023-06-26T02:34:11;97530.44;;;18.70;77.11
1371;BME280;14306;49.942;11.570;2023-06-26T02:36:39;97539.97;;;18.60;78.49
1371;BME280;14306;49.942;11.570;2023-06-26T02:39:08;97530.50;;;18.58;77.78
1371;BME280;14306;49.942;11.570;2023-06-26T02:41:36;97540.94;;;18.52;77.56
1371;BME280;14306;49.942;11.570;2023-06-26T02:44:04;97541.47;;;18.58;77.71
1371;BME280;14306;49.942;11.570;2023-06-26T02:46:32;97543.34;;;18.54;77.54
1371;BME280;14306;49.942;11.570;2023-06-26T02:49:01;97542.38;;;18.62;78.29
1371;BME280;14306;49.942;11.570;2023-06-26T02:51:31;97542.88;;;18.52;77.96
1371;BME280;14306;49.942;11.570;2023-06-26T02:54:00;97545.88;;;18.47;78.83
1371;BME280;14306;49.942;11.570;2023-06-26T02:56:28;97538.91;;;18.49;78.43
1371;BME280;14306;49.942;11.570;2023-06-26T02:58:56;97547.81;;;18.46;78.01
1371;BME280;14306;49.942;11.570;2023-06-26T03:01:24;97548.09;;;18.57;77.93
1371;BME280;14306;49.942;11.570;2023-06-26T03:03:53;97542.72;;;18.60;78.09
1371;BME280;14306;49.942;11.570;2023-06-26T03:06:21;97542.03;;;18.63;77.35
1371;BME280;14306;49.942;11.570;2023-06-26T03:08:52;97547.59;;;18.67;77.17
1371;BME280;14306;49.942;11.570;2023-06-26T03:11:20;97544.41;;;18.65;76.86
1371;BME280;14306;49.942;11.570;2023-06-26T03:13:48;97539.78;;;18.69;76.43
1371;BME280;14306;49.942;11.570;2023-06-26T03:16:17;97541.28;;;18.66;77.06
1371;BME280;14306;49.942;11.570;2023-06-26T03:18:45;97540.31;;;18.74;76.45
1371;BME280;14306;49.942;11.570;2023-06-26T03:21:13;97541.66;;;18.80;76.19
1371;BME280;14306;49.942;11.570;2023-06-26T03:23:42;97538.41;;;18.90;76.57
1371;BME280;14306;49.942;11.570;2023-06-26T03:26:11;97545.09;;;19.40;75.40
1371;BME280;14306;49.942;11.570;2023-06-26T03:28:41;97538.47;;;19.94;73.21
1371;BME280;14306;49.942;11.570;2023-06-26T03:31:10;97541.41;;;20.20;71.44
1371;BME280;14306;49.942;11.570;2023-06-26T03:33:38;97544.09;;;20.77;69.81
1371;BME280;14306;49.942;11.570;2023-06-26T03:36:06;97553.34;;;20.88;68.68
1371;BME280;14306;49.942;11.570;2023-06-26T03:38:36;97555.78;;;21.64;66.81
1371;BME280;14306;49.942;11.570;2023-06-26T03:41:04;97565.31;;;21.96;64.66
1371;BME280;14306;49.942;11.570;2023-06-26T03:43:34;97548.09;;;22.36;63.69
1371;BME280;14306;49.942;11.570;2023-06-26T03:46:02;97555.03;;;22.23;63.05
1371;BME280;14306;49.942;11.570;2023-06-26T03:48:30;97558.19;;;22.54;61.96
1371;BME280;14306;49.942;11.570;2023-06-26T03:50:58;97567.50;;;23.16;59.42
1371;BME280;14306;49.942;11.570;2023-06-26T03:53:28;97554.94;;;22.86;59.29
1371;BME280;14306;49.942;11.570;2023-06-26T03:55:56;97557.88;;;23.43;57.51
1371;BME280;14306;49.942;11.570;2023-06-26T03:58:24;97550.81;;;23.53;56.82
1371;BME280;14306;49.942;11.570;2023-06-26T04:00:54;97557.16;;;24.18;54.53
1371;BME280;14306;49.942;11.570;2023-06-26T04:03:24;97557.81;;;24.93;52.55
1371;BME280;14306;49.942;11.570;2023-06-26T04:05:52;97563.78;;;24.99;51.41
1371;BME280;14306;49.942;11.570;2023-06-26T04:08:20;97576.13;;;25.43;49.52
1371;BME280;14306;49.942;11.570;2023-06-26T04:10:49;97590.28;;;26.26;48.18
1371;BME280;14306;49.942;11.570;2023-06-26T04:13:18;97578.88;;;25.96;48.58
1371;BME280;14306;49.942;11.570;2023-06-26T04:15:46;97573.69;;;26.09;48.23
1371;BME280;14306;49.942;11.570;2023-06-26T04:18:16;97597.63;;;26.82;46.69
1371;BME280;14306;49.942;11.570;2023-06-26T04:21:05;97610.78;;;27.43;44.83
1371;BME280;14306;49.942;11.570;2023-06-26T04:23:35;97618.53;;;27.69;44.53
1371;BME280;14306;49.942;11.570;2023-06-26T04:26:03;97611.53;;;27.98;43.28
1371;BME280;14306;49.942;11.570;2023-06-26T04:28:31;97647.59;;;29.19;41.27
1371;BME280;14306;49.942;11.570;2023-06-26T04:31:00;97635.09;;;29.01;40.42
1371;BME280;14306;49.942;11.570;2023-06-26T04:33:31;97624.03;;;28.60;41.43
1371;BME280;14306;49.942;11.570;2023-06-26T04:35:59;97616.06;;;28.59;41.26
1371;BME280;14306;49.942;11.570;2023-06-26T04:38:31;97619.69;;;28.19;41.58
1371;BME280;14306;49.942;11.570;2023-06-26T04:40:59;97628.00;;;28.93;40.56
1371;BME280;14306;49.942;11.570;2023-06-26T04:43:28;97659.47;;;30.69;36.98
1371;BME280;14306;49.942;11.570;2023-06-26T04:45:56;97668.91;;;30.98;36.49
1371;BME280;14306;49.942;11.570;2023-06-26T04:48:24;97679.63;;;31.19;35.92
1371;BME280;14306;49.942;11.570;2023-06-26T04:50:55;97681.84;;;31.47;35.42
1371;BME280;14306;49.942;11.570;2023-06-26T04:53:25;97702.53;;;32.53;33.58
1371;BME280;14306;49.942;11.570;2023-06-26T04:55:54;97716.34;;;33.04;33.01
1371;BME280;14306;49.942;11.570;2023-06-26T04:58:22;97714.44;;;33.01;33.43
1371;BME280;14306;49.942;11.570;2023-06-26T05:00:50;97679.13;;;31.79;34.34
1371;BME280;14306;49.942;11.570;2023-06-26T05:03:18;97688.84;;;32.38;33.69
1371;BME280;14306;49.942;11.570;2023-06-26T05:05:47;97688.66;;;31.97;33.83
1371;BME280;14306;49.942;11.570;2023-06-26T05:08:18;97655.81;;;30.91;36.18
1371;BME280;14306;49.942;11.570;2023-06-26T05:10:46;97682.19;;;32.16;34.04
1371;BME280;14306;49.942;11.570;2023-06-26T05:13:15;97705.41;;;32.94;33.11
1371;BME280;14306;49.942;11.570;2023-06-26T05:15:45;97671.09;;;31.45;35.42
1371;BME280;14306;49.942;11.570;2023-06-26T05:18:13;97700.50;;;32.53;33.84
1371;BME280;14306;49.942;11.570;2023-06-26T05:20:42;97703.41;;;32.94;32.77
1371;BME280;14306;49.942;11.570;2023-06-26T05:23:11;97721.09;;;33.61;32.40
1371;BME280;14306;49.942;11.570;2023-06-26T05:25:42;97711.00;;;33.22;31.95
1371;BME280;14306;49.942;11.570;2023-06-26T05:28:12;97736.13;;;34.33;30.57
1371;BME280;14306;49.942;11.570;2023-06-26T05:30:42;97720.22;;;33.64;31.15
1371;BME280;14306;49.942;11.570;2023-06-26T05:33:11;97771.69;;;35.63;28.54
1371;BME280;14306;49.942;11.570;2023-06-26T05:35:40;97702.38;;;32.72;32.00
1371;BME280;14306;49.942;11.570;2023-06-26T05:38:09;97686.66;;;32.30;32.66
1371;BME280;14306;49.942;11.570;2023-06-26T05:40:42;97737.75;;;34.43;30.13
1371;BME280;14306;49.942;11.570;2023-06-26T05:43:10;97701.22;;;33.27;31.38
1371;BME280;14306;49.942;11.570;2023-06-26T05:45:40;97673.69;;;32.04;32.75
1371;BME280;14306;49.942;11.570;2023-06-26T05:48:09;97701.91;;;32.90;31.87
1371;BME280;14306;49.942;11.570;2023-06-26T05:50:37;97681.22;;;32.23;33.37
1371;BME280;14306;49.942;11.570;2023-06-26T05:53:08;97689.28;;;32.37;32.45
1371;BME280;14306;49.942;11.570;2023-06-26T05:55:37;97709.06;;;33.19;31.53
1371;BME280;14306;49.942;11.570;2023-06-26T05:58:09;97683.50;;;32.28;32.73
1371;BME280;14306;49.942;11.570;2023-06-26T06:00:38;97680.06;;;32.53;32.55
1371;BME280;14306;49.942;11.570;2023-06-26T06:03:09;97663.41;;;31.65;33.72
1371;BME280;14306;49.942;11.570;2023-06-26T06:05:38;97669.66;;;32.21;33.37
1371;BME280;14306;49.942;11.570;2023-06-26T06:08:06;97675.72;;;32.35;32.72
1371;BME280;14306;49.942;11.570;2023-06-26T06:10:34;97676.13;;;32.79;32.42
1371;BME280;14306;49.942;11.570;2023-06-26T06:13:03;97675.25;;;32.82;32.01
1371;BME280;14306;49.942;11.570;2023-06-26T06:15:32;97773.84;;;36.51;27.66
1371;BME280;14306;49.942;11.570;2023-06-26T06:18:01;97754.78;;;35.94;27.90
1371;BME280;14306;49.942;11.570;2023-06-26T06:20:29;97786.50;;;37.13;26.52
1371;BME280;14306;49.942;11.570;2023-06-26T06:22:57;97734.53;;;35.34;28.30
1371;BME280;14306;49.942;11.570;2023-06-26T06:25:25;97819.53;;;38.71;24.45
1371;BME280;14306;49.942;11.570;2023-06-26T06:27:54;97793.38;;;37.93;25.14
1371;BME280;14306;49.942;11.570;2023-06-26T06:30:23;97816.75;;;38.62;24.21
1371;BME280;14306;49.942;11.570;2023-06-26T06:33:12;97808.97;;;38.39;24.65
1371;BME280;14306;49.942;11.570;2023-06-26T06:35:40;97825.53;;;38.97;24.04
1371;BME280;14306;49.942;11.570;2023-06-26T06:38:08;97754.81;;;36.24;27.41
1371;BME280;14306;49.942;11.570;2023-06-26T06:40:36;97766.69;;;36.68;26.76
1371;BME280;14306;49.942;11.570;2023-06-26T06:43:05;97767.28;;;36.63;26.62
1371;BME280;14306;49.942;11.570;2023-06-26T06:45:33;97731.41;;;35.32;28.66
1371;BME280;14306;49.942;11.570;2023-06-26T06:48:01;97824.16;;;38.92;24.41
1371;BME280;14306;49.942;11.570;2023-06-26T06:50:31;97846.78;;;39.63;23.52
1371;BME280;14306;49.942;11.570;2023-06-26T06:53:00;97859.41;;;40.29;22.97
1371;BME280;14306;49.942;11.570;2023-06-26T06:55:28;97863.34;;;40.80;22.34
1371;BME280;14306;49.942;11.570;2023-06-26T06:57:56;97828.94;;;39.48;23.55
1371;BME280;14306;49.942;11.570;2023-06-26T07:00:25;97921.63;;;43.07;20.44
1371;BME280;14306;49.942;11.570;2023-06-26T07:02:53;97887.34;;;41.68;21.70
1371;BME280;14306;49.942;11.570;2023-06-26T07:05:23;97925.38;;;43.24;20.23
1371;BME280;14306;49.942;11.570;2023-06-26T07:07:53;97917.41;;;42.97;20.83
1371;BME280;14306;49.942;11.570;2023-06-26T07:10:21;97894.00;;;42.31;21.31
1371;BME280;14306;49.942;11.570;2023-06-26T07:12:49;97953.97;;;44.69;19.29
1371;BME280;14306;49.942;11.570;2023-06-26T07:15:21;97935.66;;;44.17;19.39
1371;BME280;14306;49.942;11.570;2023-06-26T07:17:51;97851.41;;;41.31;21.91
1371;BME280;14306;49.942;11.570;2023-06-26T07:20:19;97886.56;;;42.39;20.85
1371;BME280;14306;49.942;11.570;2023-06-26T07:22:48;97848.63;;;41.36;22.31
1371;BME280;14306;49.942;11.570;2023-06-26T07:25:18;97836.81;;;41.03;22.20
1371;BME280;14306;49.942;11.570;2023-06-26T07:27:47;97834.56;;;40.73;22.31
1371;BME280;14306;49.942;11.570;2023-06-26T07:30:15;97877.75;;;42.68;20.42
1371;BME280;14306;49.942;11.570;2023-06-26T07:32:45;97910.53;;;43.62;19.85
1371;BME280;14306;49.942;11.570;2023-06-26T07:35:13;97816.59;;;40.32;22.76
1371;BME280;14306;49.942;11.570;2023-06-26T07:37:41;97912.19;;;43.80;19.63
1371;BME280;14306;49.942;11.570;2023-06-26T07:40:11;97879.69;;;42.82;20.28
1371;BME280;14306;49.942;11.570;2023-06-26T07:42:40;97844.53;;;41.83;20.99
1371;BME280;14306;49.942;11.570;2023-06-26T07:45:09;97836.28;;;41.85;21.36
1371;BME280;14306;49.942;11.570;2023-06-26T07:47:39;97865.09;;;42.75;19.97
1371;BME280;14306;49.942;11.570;2023-06-26T07:50:08;97894.47;;;43.76;19.58
1371;BME280;14306;49.942;11.570;2023-06-26T07:52:37;97919.38;;;44.78;18.57
1371;BME280;14306;49.942;11.570;2023-06-26T07:55:05;97915.19;;;44.90;18.63
1371;BME280;14306;49.942;11.570;2023-06-26T07:57:34;97944.44;;;45.84;17.79
1371;BME280;14306;49.942;11.570;2023-06-26T08:00:04;97925.59;;;45.32;18.14
1371;BME280;14306;49.942;11.570;2023-06-26T08:02:33;97964.63;;;46.60;16.80
1371;BME280;14306;49.942;11.570;2023-06-26T08:05:02;97937.19;;;45.67;17.55
1371;BME280;14306;49.942;11.570;2023-06-26T08:07:30;97969.25;;;47.03;16.21
1371;BME280;14306;49.942;11.570;2023-06-26T08:09:59;97910.75;;;45.22;17.23
1371;BME280;14306;49.942;11.570;2023-06-26T08:12:27;97931.09;;;45.92;17.05
1371;BME280;14306;49.942;11.570;2023-06-26T08:14:57;97933.25;;;46.32;15.82
1371;BME280;14306;49.942;11.570;2023-06-26T08:17:27;97922.75;;;45.94;16.37
1371;BME280;14306;49.942;11.570;2023-06-26T08:19:56;97876.97;;;44.43;16.98
1371;BME280;14306;49.942;11.570;2023-06-26T08:22:24;97965.25;;;47.90;14.26
1371;BME280;14306;49.942;11.570;2023-06-26T08:24:53;97931.53;;;46.88;15.79
1371;BME280;14306;49.942;11.570;2023-06-26T08:27:21;97831.63;;;43.12;18.39
1371;BME280;14306;49.942;11.570;2023-06-26T08:29:49;97922.47;;;46.44;16.11
1371;BME280;14306;49.942;11.570;2023-06-26T08:32:18;97991.00;;;48.75;14.32
1371;BME280;14306;49.942;11.570;2023-06-26T08:34:47;97977.25;;;48.81;13.81
1371;BME280;14306;49.942;11.570;2023-06-26T08:37:15;97968.28;;;48.71;14.07
1371;BME280;14306;49.942;11.570;2023-06-26T08:39:44;97939.72;;;47.32;14.70
1371;BME280;14306;49.942;11.570;2023-06-26T08:42:13;97921.38;;;47.11;14.01
1371;BME280;14306;49.942;11.570;2023-06-26T08:44:41;97915.19;;;47.02;14.97
1371;BME280;14306;49.942;11.570;2023-06-26T08:47:27;97929.00;;;47.33;13.90
1371;BME280;14306;49.942;11.570;2023-06-26T08:50:02;97922.50;;;47.32;13.72
1371;BME280;14306;49.942;11.570;2023-06-26T08:52:36;97898.88;;;46.62;13.79
1371;BME280;14306;49.942;11.570;2023-06-26T08:55:08;97886.44;;;46.13;14.93
1371;BME280;14306;49.942;11.570;2023-06-26T08:57:38;97877.53;;;46.17;14.79
1371;BME280;14306;49.942;11.570;2023-06-26T09:00:08;97893.22;;;46.51;14.80
1371;BME280;14306;49.942;11.570;2023-06-26T09:02:37;97863.53;;;46.02;14.90
1371;BME280;14306;49.942;11.570;2023-06-26T09:05:11;97885.44;;;46.40;14.67
1371;BME280;14306;49.942;11.570;2023-06-26T09:07:39;97851.16;;;45.10;14.07
1371;BME280;14306;49.942;11.570;2023-06-26T09:10:08;97848.28;;;45.21;15.19
1371;BME280;14306;49.942;11.570;2023-06-26T09:12:37;97846.94;;;45.33;14.99
1371;BME280;14306;49.942;11.570;2023-06-26T09:15:06;97857.41;;;45.82;14.93
1371;BME280;14306;49.942;11.570;2023-06-26T09:17:39;97864.97;;;45.85;14.51
1371;BME280;14306;49.942;11.570;2023-06-26T09:20:10;97857.03;;;45.96;14.62
1371;BME280;14306;49.942;11.570;2023-06-26T09:22:41;97832.47;;;44.76;15.92
1371;BME280;14306;49.942;11.570;2023-06-26T09:25:09;97819.19;;;44.95;15.51
1371;BME280;14306;49.942;11.570;2023-06-26T09:27:38;97817.66;;;44.66;15.44
1371;BME280;14306;49.942;11.570;2023-06-26T09:30:07;97831.94;;;45.05;15.10
1371;BME280;14306;49.942;11.570;2023-06-26T09:32:35;97842.94;;;45.58;15.35
1371;BME280;14306;49.942;11.570;2023-06-26T09:35:05;97815.34;;;44.59;15.88
1371;BME280;14306;49.942;11.570;2023-06-26T09:37:35;97842.16;;;45.57;15.41
1371;BME280;14306;49.942;11.570;2023-06-26T09:40:04;97851.50;;;46.15;13.77
1371;BME280;14306;49.942;11.570;2023-06-26T09:42:34;97840.63;;;45.51;15.72
1371;BME280;14306;49.942;11.570;2023-06-26T09:45:02;97826.94;;;45.16;15.29
1371;BME280;14306;49.942;11.570;2023-06-26T09:47:32;97857.41;;;46.57;14.25
1371;BME280;14306;49.942;11.570;2023-06-26T09:50:03;97862.25;;;46.68;13.78
1371;BME280;14306;49.942;11.570;2023-06-26T09:52:32;97796.59;;;44.69;15.52
1371;BME280;14306;49.942;11.570;2023-06-26T09:55:09;97816.00;;;45.15;14.47
1371;BME280;14306;49.942;11.570;2023-06-26T09:57:39;97800.50;;;44.72;16.07
1371;BME280;14306;49.942;11.570;2023-06-26T10:00:09;97809.75;;;45.11;14.98
1371;BME280;14306;49.942;11.570;2023-06-26T10:02:39;97810.31;;;45.04;15.18
1371;BME280;14306;49.942;11.570;2023-06-26T10:05:07;97800.72;;;44.85;14.82
1371;BME280;14306;49.942;11.570;2023-06-26T10:07:37;97757.94;;;43.10;17.61
1371;BME280;14306;49.942;11.570;2023-06-26T10:10:10;97754.16;;;42.82;17.71
1371;BME280;14306;49.942;11.570;2023-06-26T10:12:39;97743.53;;;42.88;17.87
1371;BME280;14306;49.942;11.570;2023-06-26T10:15:08;97726.75;;;42.17;17.42
1371;BME280;14306;49.942;11.570;2023-06-26T10:17:41;97749.44;;;43.32;15.54
1371;BME280;14306;49.942;11.570;2023-06-26T10:20:12;97751.78;;;43.39;17.36
1371;BME280;14306;49.942;11.570;2023-06-26T10:22:44;97731.44;;;42.62;17.61
1371;BME280;14306;49.942;11.570;2023-06-26T10:25:17;97720.88;;;42.26;18.07
1371;BME280;14306;49.942;11.570;2023-06-26T10:27:50;97709.69;;;41.92;18.35
1371;BME280;14306;49.942;11.570;2023-06-26T10:30:23;97693.44;;;41.98;17.37
1371;BME280;14306;49.942;11.570;2023-06-26T10:32:55;97736.41;;;43.15;16.75
1371;BME280;14306;49.942;11.570;2023-06-26T10:35:24;97737.53;;;42.81;16.49
1371;BME280;14306;49.942;11.570;2023-06-26T10:38:00;97693.03;;;41.53;16.75
1371;BME280;14306;49.942;11.570;2023-06-26T10:40:42;97695.06;;;41.47;18.15
1371;BME280;14306;49.942;11.570;2023-06-26T10:43:13;97658.81;;;40.57;19.18
1371;BME280;14306;49.942;11.570;2023-06-26T10:45:45;97670.47;;;40.99;17.45
1371;BME280;14306;49.942;11.570;2023-06-26T10:48:14;97657.63;;;40.63;18.09
1371;BME280;14306;49.942;11.570;2023-06-26T10:50:46;97671.59;;;41.32;16.95
1371;BME280;14306;49.942;11.570;2023-06-26T10:53:21;97673.53;;;41.21;17.11
1371;BME280;14306;49.942;11.570;2023-06-26T10:55:57;97684.34;;;41.63;16.81
1371;BME280;14306;49.942;11.570;2023-06-26T10:58:32;97642.19;;;40.30;17.24
1371;BME280;14306;49.942;11.570;2023-06-26T11:01:15;97651.50;;;40.70;17.20
1371;BME280;14306;49.942;11.570;2023-06-26T11:03:44;97617.31;;;39.90;19.30
1371;BME280;14306;49.942;11.570;2023-06-26T11:06:14;97599.09;;;39.04;19.43
1371;BME280;14306;49.942;11.570;2023-06-26T11:08:46;97596.19;;;38.60;20.40
1371;BME280;14306;49.942;11.570;2023-06-26T11:11:17;97611.53;;;39.36;19.06
1371;BME280;14306;49.942;11.570;2023-06-26T11:13:46;97602.03;;;39.24;19.77
1371;BME280;14306;49.942;11.570;2023-06-26T11:16:16;97597.84;;;39.05;19.96
1371;BME280;14306;49.942;11.570;2023-06-26T11:18:44;97596.03;;;38.93;19.90
1371;BME280;14306;49.942;11.570;2023-06-26T11:21:12;97583.22;;;38.30;21.10
1371;BME280;14306;49.942;11.570;2023-06-26T11:23:43;97614.25;;;39.59;18.77
1371;BME280;14306;49.942;11.570;2023-06-26T11:26:14;97623.78;;;39.91;18.76
1371;BME280;14306;49.942;11.570;2023-06-26T11:28:56;97607.69;;;39.53;19.64
1371;BME280;14306;49.942;11.570;2023-06-26T11:31:26;97560.53;;;37.60;21.83
1371;BME280;14306;49.942;11.570;2023-06-26T11:33:56;97594.31;;;38.96;19.53
1371;BME280;14306;49.942;11.570;2023-06-26T11:36:25;97576.63;;;38.48;20.91
1371;BME280;14306;49.942;11.570;2023-06-26T11:38:53;97590.00;;;39.15;19.48
1371;BME280;14306;49.942;11.570;2023-06-26T11:41:23;97561.88;;;38.20;21.54
1371;BME280;14306;49.942;11.570;2023-06-26T11:43:53;97543.06;;;37.29;22.52
1371;BME280;14306;49.942;11.570;2023-06-26T11:46:22;97532.59;;;37.02;22.28
1371;BME280;14306;49.942;11.570;2023-06-26T11:48:51;97552.50;;;37.49;21.11
1371;BME280;14306;49.942;11.570;2023-06-26T11:51:20;97550.75;;;37.61;21.98
1371;BME280;14306;49.942;11.570;2023-06-26T11:53:49;97535.06;;;37.18;21.83
1371;BME280;14306;49.942;11.570;2023-06-26T11:56:17;97551.78;;;37.72;20.92
1371;BME280;14306;49.942;11.570;2023-06-26T11:58:58;97523.59;;;37.13;22.12
1371;BME280;14306;49.942;11.570;2023-06-26T12:01:31;97531.28;;;37.21;21.99
1371;BME280;14306;49.942;11.570;2023-06-26T12:04:03;97527.88;;;37.08;21.96
1371;BME280;14306;49.942;11.570;2023-06-26T12:06:34;97526.59;;;37.18;21.77
1371;BME280;14306;49.942;11.570;2023-06-26T12:09:04;97524.66;;;36.74;22.65
1371;BME280;14306;49.942;11.570;2023-06-26T12:11:34;97512.56;;;36.73;22.62
1371;BME280;14306;49.942;11.570;2023-06-26T12:14:05;97513.38;;;36.56;22.67
1371;BME280;14306;49.942;11.570;2023-06-26T12:16:34;97516.50;;;36.58;23.10
1371;BME280;14306;49.942;11.570;2023-06-26T12:19:05;97526.47;;;37.04;22.92
1371;BME280;14306;49.942;11.570;2023-06-26T12:21:51;97521.28;;;37.02;23.07
1371;BME280;14306;49.942;11.570;2023-06-26T12:24:21;97509.59;;;36.77;22.96
1371;BME280;14306;49.942;11.570;2023-06-26T12:26:51;97500.53;;;36.37;23.40
1371;BME280;14306;49.942;11.570;2023-06-26T12:29:32;97489.38;;;35.88;23.76
1371;BME280;14306;49.942;11.570;2023-06-26T12:32:01;97486.75;;;36.12;23.73
1371;BME280;14306;49.942;11.570;2023-06-26T12:34:31;97493.66;;;36.11;22.53
1371;BME280;14306;49.942;11.570;2023-06-26T12:37:01;97491.13;;;36.04;23.12
1371;BME280;14306;49.942;11.570;2023-06-26T12:39:45;97476.03;;;35.62;24.73
1371;BME280;14306;49.942;11.570;2023-06-26T12:42:14;97478.22;;;35.76;23.77
1371;BME280;14306;49.942;11.570;2023-06-26T12:44:46;97473.03;;;35.47;24.62
1371;BME280;14306;49.942;11.570;2023-06-26T12:47:15;97454.72;;;35.12;25.39
1371;BME280;14306;49.942;11.570;2023-06-26T12:49:45;97464.81;;;34.91;25.55
1371;BME280;14306;49.942;11.570;2023-06-26T12:52:17;97457.97;;;35.32;25.18
1371;BME280;14306;49.942;11.570;2023-06-26T12:54:50;97434.75;;;34.49;25.13
1371;BME280;14306;49.942;11.570;2023-06-26T12:57:19;97424.25;;;34.49;25.38
1371;BME280;14306;49.942;11.570;2023-06-26T12:59:49;97422.84;;;34.45;25.06
1371;BME280;14306;49.942;11.570;2023-06-26T13:02:17;97432.13;;;34.63;24.46
1371;BME280;14306;49.942;11.570;2023-06-26T13:04:46;97419.94;;;34.36;24.82
1371;BME280;14306;49.942;11.570;2023-06-26T13:07:15;97432.94;;;34.64;25.17
1371;BME280;14306;49.942;11.570;2023-06-26T13:09:43;97444.72;;;35.11;22.94
1371;BME280;14306;49.942;11.570;2023-06-26T13:12:12;97444.50;;;35.36;24.23
1371;BME280;14306;49.942;11.570;2023-06-26T13:14:40;97439.25;;;35.25;23.22